Terminal Aerodrome Forecast
Issued by NWS

Home | Current Version | Previous Version | Text Only | Print | Product List | Glossary Off
Versions: 1 2 3 4 5 6 7 8 9 10 11 12 13 14 15 16 17 18 19 20 21 22 23 24 25 26 27 28 29 30 31 32

000
FTUS43 KLOT 140300 AAB
TAFDPA
TAF AMD
KDPA 140338Z 1404/1424 19012G20KT P6SM VCSH BKN050 OVC100
     FM140930 35020G30KT P6SM VCSH OVC009
     FM142100 36015G25KT 3SM -SN BR OVC020=

USA.gov is the U.S. government's official web portal to all federal, state and local government web resources and services.